sensor_id;sensor_type;location;lat;lon;timestamp;pressure;altitude;pressure_sealevel;temperature;humidity
69027;BME280;56080;47.594;19.116;2023-08-31T00:01:55;99520;;;16.51;95.06
69027;BME280;56080;47.594;19.116;2023-08-31T00:11:56;99506;;;16.50;95.79
69027;BME280;56080;47.594;19.116;2023-08-31T00:21:58;99507;;;16.47;96.21
69027;BME280;56080;47.594;19.116;2023-08-31T00:42:00;99520;;;16.46;96.46
69027;BME280;56080;47.594;19.116;2023-08-31T00:52:02;99511;;;16.54;95.67
69027;BME280;56080;47.594;19.116;2023-08-31T01:02:07;99501;;;16.50;95.01
69027;BME280;56080;47.594;19.116;2023-08-31T01:12:09;99514;;;16.40;95.87
69027;BME280;56080;47.594;19.116;2023-08-31T01:22:07;99512;;;16.46;95.01
69027;BME280;56080;47.594;19.116;2023-08-31T01:32:07;99513;;;16.71;92.55
69027;BME280;56080;47.594;19.116;2023-08-31T01:42:09;99532;;;16.73;92.54
69027;BME280;56080;47.594;19.116;2023-08-31T01:52:10;99537;;;16.67;93.15
69027;BME280;56080;47.594;19.116;2023-08-31T02:02:11;99533;;;16.55;93.73
69027;BME280;56080;47.594;19.116;2023-08-31T02:12:12;99535;;;16.70;92.02
69027;BME280;56080;47.594;19.116;2023-08-31T02:42:16;99549;;;16.38;93.13
69027;BME280;56080;47.594;19.116;2023-08-31T02:52:18;99551;;;16.47;92.41
69027;BME280;56080;47.594;19.116;2023-08-31T03:02:19;99549;;;16.33;92.85
69027;BME280;56080;47.594;19.116;2023-08-31T03:12:20;99553;;;16.14;93.84
69027;BME280;56080;47.594;19.116;2023-08-31T03:22:21;99561;;;16.22;94.14
69027;BME280;56080;47.594;19.116;2023-08-31T03:32:23;99558;;;16.00;95.43
69027;BME280;56080;47.594;19.116;2023-08-31T03:42:24;99562;;;15.93;96.32
69027;BME280;56080;47.594;19.116;2023-08-31T03:52:25;99579;;;15.93;96.28
69027;BME280;56080;47.594;19.116;2023-08-31T04:02:27;99584;;;15.93;95.73
69027;BME280;56080;47.594;19.116;2023-08-31T04:12:29;99579;;;16.07;95.44
69027;BME280;56080;47.594;19.116;2023-08-31T04:22:29;99582;;;16.18;94.48
69027;BME280;56080;47.594;19.116;2023-08-31T04:32:31;99601;;;16.39;93.35
69027;BME280;56080;47.594;19.116;2023-08-31T04:42:34;99611;;;16.72;90.53
69027;BME280;56080;47.594;19.116;2023-08-31T04:52:33;99629;;;16.87;89.21
69027;BME280;56080;47.594;19.116;2023-08-31T05:02:35;99634;;;17.06;87.27
69027;BME280;56080;47.594;19.116;2023-08-31T05:12:36;99656;;;17.43;86.01
69027;BME280;56080;47.594;19.116;2023-08-31T05:32:39;99681;;;18.75;81.27
69027;BME280;56080;47.594;19.116;2023-08-31T05:42:40;99688;;;19.98;71.96
69027;BME280;56080;47.594;19.116;2023-08-31T05:52:44;99702;;;19.41;73.62
69027;BME280;56080;47.594;19.116;2023-08-31T06:02:44;99707;;;19.10;74.55
69027;BME280;56080;47.594;19.116;2023-08-31T06:12:45;99724;;;18.97;75.85
69027;BME280;56080;47.594;19.116;2023-08-31T06:22:47;99731;;;19.40;73.18
69027;BME280;56080;47.594;19.116;2023-08-31T06:32:50;99739;;;19.72;71.31
69027;BME280;56080;47.594;19.116;2023-08-31T06:42:50;99738;;;19.90;70.02
69027;BME280;56080;47.594;19.116;2023-08-31T06:52:52;99757;;;19.86;69.71
69027;BME280;56080;47.594;19.116;2023-08-31T07:02:54;99756;;;19.90;68.93
69027;BME280;56080;47.594;19.116;2023-08-31T07:12:55;99760;;;20.16;68.46
69027;BME280;56080;47.594;19.116;2023-08-31T07:33:03;99780;;;20.14;67.45
69027;BME280;56080;47.594;19.116;2023-08-31T07:43:00;99787;;;20.19;67.20
69027;BME280;56080;47.594;19.116;2023-08-31T07:53:03;99793;;;20.38;65.31
69027;BME280;56080;47.594;19.116;2023-08-31T08:03:04;99798;;;20.62;63.72
69027;BME280;56080;47.594;19.116;2023-08-31T08:13:05;99803;;;20.84;63.14
69027;BME280;56080;47.594;19.116;2023-08-31T08:23:07;99809;;;22.15;57.90
69027;BME280;56080;47.594;19.116;2023-08-31T08:33:09;99821;;;23.40;54.77
69027;BME280;56080;47.594;19.116;2023-08-31T08:43:12;99821;;;26.23;45.42
69027;BME280;56080;47.594;19.116;2023-08-31T08:53:15;99816;;;26.59;44.56
69027;BME280;56080;47.594;19.116;2023-08-31T09:03:16;99840;;;23.57;49.91
69027;BME280;56080;47.594;19.116;2023-08-31T09:13:18;99839;;;24.28;49.65
69027;BME280;56080;47.594;19.116;2023-08-31T09:23:20;99860;;;24.21;49.45
69027;BME280;56080;47.594;19.116;2023-08-31T09:33:22;99869;;;23.72;51.02
69027;BME280;56080;47.594;19.116;2023-08-31T09:43:24;99880;;;23.49;53.32
69027;BME280;56080;47.594;19.116;2023-08-31T09:53:29;99878;;;23.72;49.46
69027;BME280;56080;47.594;19.116;2023-08-31T10:03:28;99877;;;23.68;48.27
69027;BME280;56080;47.594;19.116;2023-08-31T10:13:32;99898;;;23.61;50.04
69027;BME280;56080;47.594;19.116;2023-08-31T10:23:32;99901;;;23.88;50.27
69027;BME280;56080;47.594;19.116;2023-08-31T10:33:35;99913;;;23.09;54.77
69027;BME280;56080;47.594;19.116;2023-08-31T10:43:47;99919;;;23.39;55.05
69027;BME280;56080;47.594;19.116;2023-08-31T10:53:39;99929;;;23.08;57.22
69027;BME280;56080;47.594;19.116;2023-08-31T11:13:42;99938;;;23.25;56.17
69027;BME280;56080;47.594;19.116;2023-08-31T11:33:47;99947;;;23.31;53.33
69027;BME280;56080;47.594;19.116;2023-08-31T11:43:48;99947;;;23.36;52.83
69027;BME280;56080;47.594;19.116;2023-08-31T11:53:49;99940;;;23.69;52.72
69027;BME280;56080;47.594;19.116;2023-08-31T12:03:53;99938;;;22.93;53.86
69027;BME280;56080;47.594;19.116;2023-08-31T12:13:53;99949;;;23.60;51.57
69027;BME280;56080;47.594;19.116;2023-08-31T12:23:56;99936;;;24.05;50.03
69027;BME280;56080;47.594;19.116;2023-08-31T12:33:58;99931;;;24.13;47.11
69027;BME280;56080;47.594;19.116;2023-08-31T12:43:59;99935;;;24.03;46.62
69027;BME280;56080;47.594;19.116;2023-08-31T12:54:01;99943;;;23.41;47.32
69027;BME280;56080;47.594;19.116;2023-08-31T13:04:05;99931;;;23.63;47.92
69027;BME280;56080;47.594;19.116;2023-08-31T13:24:07;99932;;;23.79;47.17
69027;BME280;56080;47.594;19.116;2023-08-31T13:34:10;99927;;;23.55;47.06
69027;BME280;56080;47.594;19.116;2023-08-31T13:44:13;99928;;;23.35;46.98
69027;BME280;56080;47.594;19.116;2023-08-31T13:54:13;99924;;;23.64;47.34
69027;BME280;56080;47.594;19.116;2023-08-31T14:04:15;99933;;;23.96;45.84
69027;BME280;56080;47.594;19.116;2023-08-31T14:14:17;99940;;;24.00;45.53
69027;BME280;56080;47.594;19.116;2023-08-31T14:24:19;99944;;;24.19;44.63
69027;BME280;56080;47.594;19.116;2023-08-31T14:34:22;99946;;;24.12;44.50
69027;BME280;56080;47.594;19.116;2023-08-31T14:44:24;99956;;;23.99;44.51
69027;BME280;56080;47.594;19.116;2023-08-31T14:54:26;99963;;;24.33;44.66
69027;BME280;56080;47.594;19.116;2023-08-31T15:04:28;99976;;;23.99;45.72
69027;BME280;56080;47.594;19.116;2023-08-31T15:14:29;99975;;;23.78;46.46
69027;BME280;56080;47.594;19.116;2023-08-31T15:24:32;99982;;;23.73;46.98
69027;BME280;56080;47.594;19.116;2023-08-31T15:34:35;99993;;;23.56;47.27
69027;BME280;56080;47.594;19.116;2023-08-31T15:44:40;99991;;;23.39;47.19
69027;BME280;56080;47.594;19.116;2023-08-31T15:54:38;99996;;;23.38;48.03
69027;BME280;56080;47.594;19.116;2023-08-31T16:04:42;99997;;;23.24;47.88
69027;BME280;56080;47.594;19.116;2023-08-31T16:14:47;100009;;;23.24;47.23
69027;BME280;56080;47.594;19.116;2023-08-31T16:24:44;100019;;;23.21;48.49
69027;BME280;56080;47.594;19.116;2023-08-31T16:34:45;100011;;;22.84;48.26
69027;BME280;56080;47.594;19.116;2023-08-31T16:44:47;100014;;;22.70;48.34
69027;BME280;56080;47.594;19.116;2023-08-31T16:54:49;100025;;;22.54;48.88
69027;BME280;56080;47.594;19.116;2023-08-31T17:04:57;100025;;;22.43;49.63
69027;BME280;56080;47.594;19.116;2023-08-31T17:14:53;100039;;;22.10;54.50
69027;BME280;56080;47.594;19.116;2023-08-31T17:24:55;100052;;;21.84;55.27
69027;BME280;56080;47.594;19.116;2023-08-31T17:34:57;100058;;;21.55;57.51
69027;BME280;56080;47.594;19.116;2023-08-31T17:45:04;100078;;;21.11;59.32
69027;BME280;56080;47.594;19.116;2023-08-31T17:55:05;100098;;;20.85;60.18
69027;BME280;56080;47.594;19.116;2023-08-31T18:15:07;100128;;;20.32;63.09
69027;BME280;56080;47.594;19.116;2023-08-31T18:25:08;100137;;;20.18;64.44
69027;BME280;56080;47.594;19.116;2023-08-31T18:35:07;100156;;;20.03;65.46
69027;BME280;56080;47.594;19.116;2023-08-31T18:45:16;100158;;;19.72;66.73
69027;BME280;56080;47.594;19.116;2023-08-31T18:55:11;100164;;;19.52;67.51
69027;BME280;56080;47.594;19.116;2023-08-31T19:05:17;100173;;;19.30;68.57
69027;BME280;56080;47.594;19.116;2023-08-31T19:15:14;100184;;;19.36;67.49
69027;BME280;56080;47.594;19.116;2023-08-31T19:25:19;100192;;;19.31;68.38
69027;BME280;56080;47.594;19.116;2023-08-31T19:45:21;100205;;;18.97;69.27
69027;BME280;56080;47.594;19.116;2023-08-31T19:55:27;100215;;;18.69;72.26
69027;BME280;56080;47.594;19.116;2023-08-31T20:05:24;100210;;;18.68;72.51
69027;BME280;56080;47.594;19.116;2023-08-31T20:15:24;100209;;;18.17;77.06
69027;BME280;56080;47.594;19.116;2023-08-31T20:25:26;100223;;;18.03;78.02
69027;BME280;56080;47.594;19.116;2023-08-31T20:45:27;100242;;;18.19;80.34
69027;BME280;56080;47.594;19.116;2023-08-31T20:55:29;100244;;;18.11;82.71
69027;BME280;56080;47.594;19.116;2023-08-31T21:05:29;100245;;;17.75;86.55
69027;BME280;56080;47.594;19.116;2023-08-31T21:15:31;100255;;;17.54;86.66
69027;BME280;56080;47.594;19.116;2023-08-31T21:25:32;100270;;;17.38;84.64
69027;BME280;56080;47.594;19.116;2023-08-31T21:35:34;100279;;;17.25;87.20
69027;BME280;56080;47.594;19.116;2023-08-31T21:55:36;100298;;;17.51;86.13
69027;BME280;56080;47.594;19.116;2023-08-31T22:05:39;100299;;;17.33;86.29
69027;BME280;56080;47.594;19.116;2023-08-31T22:15:39;100314;;;17.15;87.72
69027;BME280;56080;47.594;19.116;2023-08-31T22:35:42;100322;;;17.13;88.28
69027;BME280;56080;47.594;19.116;2023-08-31T22:45:43;100327;;;17.11;87.69
69027;BME280;56080;47.594;19.116;2023-08-31T22:55:45;100325;;;16.78;85.69
69027;BME280;56080;47.594;19.116;2023-08-31T23:15:47;100330;;;16.94;86.28
69027;BME280;56080;47.594;19.116;2023-08-31T23:25:48;100340;;;17.20;86.04
69027;BME280;56080;47.594;19.116;2023-08-31T23:35:52;100334;;;17.22;85.55
69027;BME280;56080;47.594;19.116;2023-08-31T23:45:51;100349;;;17.36;84.93
69027;BME280;56080;47.594;19.116;2023-08-31T23:55:53;100358;;;17.34;84.96
